createdAt,value
2023-04-15T00:00:55.960Z,73.25
2023-04-15T00:01:55.987Z,71.01
2023-04-15T00:02:56.156Z,74.76
2023-04-15T00:03:56.045Z,69.62
2023-04-15T00:04:55.963Z,73.96
2023-04-15T00:05:55.937Z,69.64
2023-04-15T00:06:55.969Z,70.87
2023-04-15T00:07:55.994Z,73.44
2023-04-15T00:08:56.089Z,72.55
2023-04-15T00:09:56.170Z,74.67
2023-04-15T00:10:56.203Z,73.62
2023-04-15T00:11:56.244Z,70.02
2023-04-15T00:12:56.297Z,70.88
2023-04-15T00:13:56.439Z,71.06
2023-04-15T00:14:56.460Z,72.80
2023-04-15T00:15:56.517Z,72.12
2023-04-15T00:16:56.553Z,72.24
2023-04-15T00:17:56.592Z,70.03
2023-04-15T00:18:56.605Z,73.12
2023-04-15T00:19:56.681Z,72.42
2023-04-15T00:20:56.759Z,72.73
2023-04-15T00:21:56.795Z,74.36
2023-04-15T00:22:56.878Z,74.14
2023-04-15T00:23:56.878Z,71.67
2023-04-15T00:24:56.981Z,72.64
2023-04-15T00:25:57.035Z,72.78
2023-04-15T00:26:57.107Z,75.26
2023-04-15T00:27:57.146Z,73.34
2023-04-15T00:28:57.230Z,72.36
2023-04-15T00:29:57.276Z,69.97
2023-04-15T00:30:57.372Z,72.62
2023-04-15T00:31:57.379Z,75.54
2023-04-15T00:32:57.435Z,69.51
2023-04-15T00:33:57.464Z,74.56
2023-04-15T00:34:57.570Z,71.43
2023-04-15T00:35:57.568Z,72.98
2023-04-15T00:36:57.693Z,74.10
2023-04-15T00:37:57.650Z,71.08
2023-04-15T00:38:57.897Z,74.72
2023-04-15T00:39:57.798Z,74.44
2023-04-15T00:40:57.864Z,71.73
2023-04-15T00:41:57.921Z,70.35
2023-04-15T00:42:57.923Z,71.54
2023-04-15T00:43:57.968Z,72.44
2023-04-15T00:44:58.046Z,72.62
2023-04-15T00:45:58.130Z,73.48
2023-04-15T00:46:58.157Z,73.11
2023-04-15T00:47:58.383Z,68.90
2023-04-15T00:48:58.650Z,73.06
2023-04-15T00:49:58.320Z,72.57
2023-04-15T00:50:58.391Z,74.13
2023-04-15T00:51:58.419Z,69.74
2023-04-15T00:52:58.478Z,71.49
2023-04-15T00:53:58.665Z,74.40
2023-04-15T00:54:58.872Z,73.91
2023-04-15T00:55:59.040Z,75.07
2023-04-15T00:56:59.207Z,76.88
2023-04-15T00:57:59.456Z,73.18
2023-04-15T00:58:59.806Z,72.30
2023-04-15T00:59:59.738Z,74.82
2023-04-15T01:00:59.934Z,74.97
2023-04-15T01:02:00.188Z,74.12
2023-04-15T01:03:00.505Z,73.52
2023-04-15T01:04:00.467Z,72.04
2023-04-15T01:05:00.353Z,74.46
2023-04-15T01:06:03.409Z,78.91
2023-04-15T01:07:00.307Z,77.47
2023-04-15T01:08:00.357Z,71.26
2023-04-15T01:09:00.637Z,75.44
2023-04-15T01:10:00.350Z,73.53
2023-04-15T01:11:00.309Z,69.70
2023-04-15T01:12:00.369Z,74.73
2023-04-15T01:13:00.325Z,76.15
2023-04-15T01:14:00.445Z,72.46
2023-04-15T01:15:00.299Z,74.54
2023-04-15T01:16:00.318Z,75.32
2023-04-15T01:17:00.330Z,72.09
2023-04-15T01:18:00.472Z,71.03
2023-04-15T01:19:00.564Z,74.16
2023-04-15T01:20:00.298Z,73.32
2023-04-15T01:21:00.236Z,70.14
2023-04-15T01:22:00.294Z,72.38
2023-04-15T01:23:00.209Z,71.41
2023-04-15T01:24:00.259Z,74.70
2023-04-15T01:25:00.268Z,73.40
2023-04-15T01:26:00.277Z,76.74
2023-04-15T01:27:00.215Z,71.96
2023-04-15T01:28:00.229Z,74.84
2023-04-15T01:29:00.394Z,72.41
2023-04-15T01:30:00.195Z,74.88
2023-04-15T01:31:00.206Z,72.00
2023-04-15T01:32:00.204Z,75.82
2023-04-15T01:33:00.248Z,70.59
2023-04-15T01:34:00.220Z,76.38
2023-04-15T01:35:00.270Z,71.86
2023-04-15T01:36:00.241Z,75.02
2023-04-15T01:37:00.291Z,71.52
2023-04-15T01:38:00.345Z,73.39
2023-04-15T01:39:00.649Z,76.27
2023-04-15T01:40:00.509Z,72.66
2023-04-15T01:41:00.525Z,74.15
2023-04-15T01:42:00.584Z,73.69
2023-04-15T01:43:00.625Z,73.60
2023-04-15T01:44:00.751Z,75.35
2023-04-15T01:45:00.752Z,73.55
2023-04-15T01:46:00.865Z,75.02
2023-04-15T01:47:00.927Z,75.58
2023-04-15T01:48:00.991Z,73.93
2023-04-15T01:49:01.240Z,71.39
2023-04-15T01:50:01.135Z,76.08
2023-04-15T01:51:01.156Z,72.25
2023-04-15T01:52:01.203Z,79.57
2023-04-15T01:53:01.273Z,74.06
2023-04-15T01:54:01.343Z,76.50
2023-04-15T01:55:01.327Z,74.68
2023-04-15T01:56:01.542Z,75.69
2023-04-15T01:57:01.507Z,75.67
2023-04-15T01:58:02.481Z,76.42
2023-04-15T01:59:01.814Z,75.89
2023-04-15T02:00:01.666Z,74.33
2023-04-15T02:01:01.868Z,72.90
2023-04-15T02:02:01.942Z,78.61
2023-04-15T02:03:01.850Z,75.93
2023-04-15T02:04:01.918Z,75.75
2023-04-15T02:05:01.955Z,77.69
2023-04-15T02:06:02.239Z,77.71
2023-04-15T02:07:02.080Z,74.36
2023-04-15T02:08:02.150Z,78.65
2023-04-15T02:09:02.371Z,75.01
2023-04-15T02:10:02.220Z,72.70
2023-04-15T02:11:02.274Z,72.85
2023-04-15T02:12:02.297Z,72.09
2023-04-15T02:13:02.378Z,76.31
2023-04-15T02:14:02.440Z,74.73
2023-04-15T02:15:02.458Z,74.57
2023-04-15T02:16:02.565Z,77.90
2023-04-15T02:17:02.603Z,76.43
2023-04-15T02:18:02.770Z,74.12
2023-04-15T02:19:02.885Z,79.14
2023-04-15T02:20:02.799Z,78.18
2023-04-15T02:21:02.834Z,75.01
2023-04-15T02:22:02.854Z,77.29
2023-04-15T02:23:02.951Z,74.65
2023-04-15T02:24:02.975Z,72.80
2023-04-15T02:25:03.167Z,75.75
2023-04-15T02:26:03.090Z,72.99
2023-04-15T02:27:03.210Z,78.73
2023-04-15T02:28:03.261Z,76.99
2023-04-15T02:29:03.319Z,75.86
2023-04-15T02:30:03.301Z,77.75
2023-04-15T02:31:03.422Z,73.91
2023-04-15T02:32:03.550Z,75.59
2023-04-15T02:33:03.536Z,74.04
2023-04-15T02:34:03.611Z,77.39
2023-04-15T02:35:03.657Z,78.29
2023-04-15T02:36:03.729Z,77.54
2023-04-15T02:37:03.764Z,75.98
2023-04-15T02:38:03.890Z,72.04
2023-04-15T02:39:04.181Z,70.79
2023-04-15T02:40:03.952Z,74.20
2023-04-15T02:41:04.061Z,77.36
2023-04-15T02:42:04.118Z,76.17
2023-04-15T02:43:04.173Z,76.59
2023-04-15T02:44:04.229Z,74.45
2023-04-15T02:45:04.260Z,77.54
2023-04-15T02:46:04.398Z,76.67
2023-04-15T02:47:04.400Z,79.15
2023-04-15T02:48:04.449Z,76.27
2023-04-15T02:49:04.577Z,76.70
2023-04-15T02:50:04.577Z,75.83
2023-04-15T02:51:04.688Z,76.86
2023-04-15T02:52:04.756Z,74.89
2023-04-15T02:53:04.796Z,80.05
2023-04-15T02:54:04.873Z,73.39
2023-04-15T02:55:04.916Z,77.03
2023-04-15T02:56:04.975Z,74.78
2023-04-15T02:57:05.028Z,77.52
2023-04-15T02:58:05.087Z,75.72
2023-04-15T02:59:05.163Z,77.09
2023-04-15T03:00:05.210Z,77.96
2023-04-15T03:01:05.349Z,77.96
2023-04-15T03:02:05.344Z,78.47
2023-04-15T03:03:05.605Z,80.12
2023-04-15T03:04:05.569Z,77.85
2023-04-15T03:05:05.568Z,78.83
2023-04-15T03:06:05.604Z,77.99
2023-04-15T03:07:05.666Z,77.91
2023-04-15T03:08:05.731Z,76.35
2023-04-15T03:09:05.790Z,73.58
2023-04-15T03:10:05.833Z,78.49
2023-04-15T03:11:05.899Z,75.34
2023-04-15T03:12:05.942Z,81.14
2023-04-15T03:13:06.015Z,74.80
2023-04-15T03:14:06.112Z,76.98
2023-04-15T03:15:06.125Z,78.74
2023-04-15T03:16:06.238Z,79.75
2023-04-15T03:17:06.239Z,77.93
2023-04-15T03:18:06.293Z,77.32
2023-04-15T03:19:06.364Z,78.06
2023-04-15T03:20:06.435Z,73.20
2023-04-15T03:21:06.480Z,76.45
2023-04-15T03:22:06.535Z,77.83
2023-04-15T03:23:06.696Z,77.71
2023-04-15T03:24:06.611Z,78.95
2023-04-15T03:25:06.646Z,75.68
2023-04-15T03:26:06.769Z,79.33
2023-04-15T03:27:06.764Z,78.02
2023-04-15T03:28:06.825Z,75.82
2023-04-15T03:29:06.846Z,76.64
2023-04-15T03:30:06.903Z,80.45
2023-04-15T03:31:07.089Z,77.15
2023-04-15T03:32:06.966Z,76.40
2023-04-15T03:33:07.038Z,78.14
2023-04-15T03:34:07.084Z,74.83
2023-04-15T03:35:07.128Z,78.79
2023-04-15T03:36:07.302Z,78.03
2023-04-15T03:37:07.284Z,78.97
2023-04-15T03:38:07.319Z,76.45
2023-04-15T03:39:07.390Z,79.68
2023-04-15T03:40:07.368Z,73.53
2023-04-15T03:41:07.508Z,75.36
2023-04-15T03:42:07.488Z,79.76
2023-04-15T03:43:07.904Z,76.75
2023-04-15T03:44:07.611Z,79.05
2023-04-15T03:45:07.616Z,76.87
2023-04-15T03:46:07.661Z,77.09
2023-04-15T03:47:07.767Z,78.83
2023-04-15T03:48:17.376Z,74.19
2023-04-15T03:49:08.768Z,74.48
2023-04-15T03:50:07.747Z,74.92
2023-04-15T03:51:07.754Z,74.40
2023-04-15T03:52:07.869Z,76.19
2023-04-15T03:53:07.731Z,75.47
2023-04-15T03:54:07.732Z,73.86
2023-04-15T03:55:07.665Z,71.21
2023-04-15T03:56:07.692Z,74.51
2023-04-15T03:57:07.744Z,72.37
2023-04-15T03:58:07.806Z,73.36
2023-04-15T03:59:07.864Z,75.43
2023-04-15T04:00:07.923Z,73.76
2023-04-15T04:01:07.881Z,70.03
2023-04-15T04:02:08.071Z,68.95
2023-04-15T04:03:08.282Z,73.17
2023-04-15T04:04:08.104Z,70.88
2023-04-15T04:05:08.013Z,67.36
2023-04-15T04:06:08.015Z,67.73
2023-04-15T04:07:08.029Z,73.31
2023-04-15T04:08:08.069Z,72.92
2023-04-15T04:09:08.098Z,66.72
2023-04-15T04:10:08.135Z,66.88
2023-04-15T04:11:08.152Z,66.81
2023-04-15T04:12:08.202Z,63.68
2023-04-15T04:13:08.219Z,69.92
2023-04-15T04:14:08.216Z,61.22
2023-04-15T04:15:08.275Z,61.65
2023-04-15T04:16:08.491Z,59.81
2023-04-15T04:17:08.369Z,58.60
2023-04-15T04:18:08.351Z,62.48
2023-04-15T04:19:08.409Z,58.96
2023-04-15T04:20:08.364Z,57.12
2023-04-15T04:21:08.375Z,57.75
2023-04-15T04:22:08.373Z,60.84
2023-04-15T04:23:08.373Z,56.02
2023-04-15T04:24:08.388Z,59.09
2023-04-15T04:25:08.446Z,59.80
2023-04-15T04:26:09.527Z,59.60
2023-04-15T04:27:08.488Z,57.60
2023-04-15T04:28:08.469Z,54.33
2023-04-15T04:29:08.496Z,57.39
2023-04-15T04:30:08.644Z,54.83
2023-04-15T04:31:08.481Z,53.97
2023-04-15T04:32:08.596Z,53.39
2023-04-15T04:33:08.515Z,51.16
2023-04-15T04:34:08.499Z,53.83
2023-04-15T04:35:08.454Z,53.25
2023-04-15T04:36:08.462Z,50.24
2023-04-15T04:37:08.522Z,50.40
2023-04-15T04:38:08.547Z,50.13
2023-04-15T04:39:08.537Z,49.39
2023-04-15T04:40:08.601Z,49.74
2023-04-15T04:41:08.596Z,46.58
2023-04-15T04:42:08.659Z,46.87
2023-04-15T04:43:08.685Z,50.12
2023-04-15T04:44:08.676Z,47.12
2023-04-15T04:45:08.638Z,49.51
2023-04-15T04:46:08.744Z,47.02
2023-04-15T04:47:08.770Z,45.92
2023-04-15T04:48:08.725Z,47.04
2023-04-15T04:49:08.712Z,45.62
2023-04-15T04:50:08.720Z,45.79
2023-04-15T04:51:08.740Z,47.88
2023-04-15T04:52:08.738Z,47.20
2023-04-15T04:53:08.747Z,44.69
2023-04-15T04:54:08.792Z,45.43
2023-04-15T04:55:08.881Z,46.91
2023-04-15T04:56:08.805Z,45.78
2023-04-15T04:57:08.815Z,48.07
2023-04-15T04:58:08.818Z,44.42
2023-04-15T04:59:08.779Z,43.50
2023-04-15T05:00:08.803Z,43.60
2023-04-15T05:01:08.812Z,42.86
2023-04-15T05:02:08.826Z,43.65
2023-04-15T05:03:09.073Z,42.11
2023-04-15T05:04:08.928Z,42.26
2023-04-15T05:05:08.833Z,38.67
2023-04-15T05:06:08.789Z,37.01
2023-04-15T05:07:08.784Z,40.24
2023-04-15T05:08:08.789Z,42.57
2023-04-15T05:09:08.800Z,40.26
2023-04-15T05:10:08.749Z,42.11
2023-04-15T05:11:09.021Z,36.30
2023-04-15T05:12:08.776Z,40.15
2023-04-15T05:13:08.771Z,34.33
2023-04-15T05:14:08.791Z,34.70
2023-04-15T05:15:08.811Z,36.01
2023-04-15T05:16:08.836Z,34.95
2023-04-15T05:17:08.789Z,34.40
2023-04-15T05:18:08.748Z,34.90
2023-04-15T05:19:08.778Z,36.13
2023-04-15T05:20:08.773Z,32.49
2023-04-15T05:21:08.788Z,35.20
2023-04-15T05:22:08.805Z,30.62
2023-04-15T05:23:08.734Z,31.33
2023-04-15T05:24:08.757Z,34.98
2023-04-15T05:25:08.768Z,33.69
2023-04-15T05:26:08.755Z,30.53
2023-04-15T05:27:08.775Z,26.06
2023-04-15T05:28:08.715Z,30.17
2023-04-15T05:29:09.048Z,33.86
2023-04-15T05:30:08.720Z,30.10
2023-04-15T05:31:08.769Z,26.25
2023-04-15T05:32:08.699Z,27.87
2023-04-15T05:33:08.700Z,27.79
2023-04-15T05:34:08.816Z,31.74
2023-04-15T05:35:08.728Z,28.37
2023-04-15T05:36:09.438Z,25.68
2023-04-15T05:37:08.675Z,28.91
2023-04-15T05:38:08.685Z,28.03
2023-04-15T05:39:08.695Z,27.05
2023-04-15T05:40:08.715Z,27.77
2023-04-15T05:41:08.664Z,27.17
2023-04-15T05:42:08.682Z,30.75
2023-04-15T05:43:08.783Z,29.82
2023-04-15T05:44:08.678Z,25.58
2023-04-15T05:45:08.677Z,26.82
2023-04-15T05:46:08.793Z,30.23
2023-04-15T05:47:08.697Z,28.52
2023-04-15T05:48:08.653Z,28.55
2023-04-15T05:49:08.670Z,28.74
2023-04-15T05:50:08.685Z,33.14
2023-04-15T05:51:08.681Z,30.90
2023-04-15T05:52:08.674Z,27.05
2023-04-15T05:53:09.044Z,31.99
2023-04-15T05:54:08.648Z,30.09
2023-04-15T05:55:08.702Z,27.50
2023-04-15T05:56:08.661Z,26.20
2023-04-15T05:57:08.668Z,32.98
2023-04-15T05:58:08.615Z,31.73
2023-04-15T05:59:08.687Z,30.66
2023-04-15T06:00:08.631Z,29.33
2023-04-15T06:01:08.785Z,31.83
2023-04-15T06:02:08.645Z,32.10
2023-04-15T06:03:08.651Z,33.27
2023-04-15T06:04:08.737Z,30.01
2023-04-15T06:05:08.809Z,29.34
2023-04-15T06:06:08.632Z,28.50
2023-04-15T06:07:08.636Z,29.07
2023-04-15T06:08:08.595Z,26.49
2023-04-15T06:09:08.653Z,28.38
2023-04-15T06:10:08.967Z,30.36
2023-04-15T06:11:08.662Z,27.31
2023-04-15T06:12:08.670Z,32.85
2023-04-15T06:13:08.669Z,27.16
2023-04-15T06:14:08.686Z,28.68
2023-04-15T06:15:09.506Z,30.36
2023-04-15T06:16:08.707Z,27.30
2023-04-15T06:17:08.746Z,29.40
2023-04-15T06:18:08.714Z,26.59
2023-04-15T06:19:08.712Z,27.52
2023-04-15T06:20:08.669Z,29.18
2023-04-15T06:21:08.673Z,29.65
2023-04-15T06:22:08.675Z,27.35
2023-04-15T06:23:08.693Z,30.30
2023-04-15T06:24:08.752Z,30.61
2023-04-15T06:25:08.833Z,29.02
2023-04-15T06:26:08.730Z,29.73
2023-04-15T06:27:08.658Z,25.00
2023-04-15T06:28:08.669Z,28.07
2023-04-15T06:29:08.663Z,28.86
2023-04-15T06:30:08.661Z,31.19
2023-04-15T06:31:08.728Z,34.50
2023-04-15T06:32:08.697Z,33.19
2023-04-15T06:33:08.646Z,30.94
2023-04-15T06:34:08.661Z,29.61
2023-04-15T06:35:08.665Z,29.15
2023-04-15T06:36:08.666Z,30.77
2023-04-15T06:37:08.721Z,29.82
2023-04-15T06:38:08.741Z,28.38
2023-04-15T06:39:08.741Z,30.49
2023-04-15T06:40:08.808Z,29.68
2023-04-15T06:41:08.806Z,28.74
2023-04-15T06:42:08.809Z,28.57
2023-04-15T06:43:08.821Z,30.59
2023-04-15T06:44:08.832Z,28.09
2023-04-15T06:45:08.882Z,28.56
2023-04-15T06:46:08.908Z,29.77
2023-04-15T06:47:08.948Z,32.18
2023-04-15T06:48:08.852Z,29.51
2023-04-15T06:49:08.868Z,31.80
2023-04-15T06:50:09.075Z,32.24
2023-04-15T06:51:08.876Z,31.60
2023-04-15T06:52:09.040Z,30.73
2023-04-15T06:53:09.002Z,28.03
2023-04-15T06:54:09.098Z,26.71
2023-04-15T06:55:09.069Z,26.24
2023-04-15T06:56:09.058Z,29.68
2023-04-15T06:57:09.067Z,32.62
2023-04-15T06:58:09.065Z,28.22
2023-04-15T06:59:09.095Z,28.23
2023-04-15T07:00:09.099Z,26.66
2023-04-15T07:01:09.223Z,31.87
2023-04-15T07:02:09.176Z,29.52
2023-04-15T07:03:09.213Z,34.87
2023-04-15T07:04:09.195Z,30.44
2023-04-15T07:05:09.178Z,29.34
2023-04-15T07:06:09.222Z,27.61
2023-04-15T07:07:09.193Z,32.25
2023-04-15T07:08:09.202Z,29.07
2023-04-15T07:09:09.212Z,30.30
2023-04-15T07:10:09.206Z,26.47
2023-04-15T07:11:09.264Z,30.27
2023-04-15T07:12:09.236Z,29.35
2023-04-15T07:13:09.254Z,30.42
2023-04-15T07:14:09.437Z,32.62
2023-04-15T07:15:09.367Z,29.88
2023-04-15T07:16:09.297Z,29.71
2023-04-15T07:17:09.472Z,32.68
2023-04-15T07:18:09.372Z,28.22
2023-04-15T07:19:09.383Z,30.68
2023-04-15T07:20:09.437Z,31.37
2023-04-15T07:21:09.541Z,32.73
2023-04-15T07:22:09.392Z,36.39
2023-04-15T07:23:09.419Z,32.66
2023-04-15T07:24:09.512Z,31.15
2023-04-15T07:25:09.497Z,27.90
2023-04-15T07:26:09.478Z,27.71
2023-04-15T07:27:09.483Z,25.65
2023-04-15T07:28:09.515Z,31.72
2023-04-15T07:29:09.540Z,38.14
2023-04-15T07:30:09.615Z,37.21
2023-04-15T07:31:09.639Z,38.34
2023-04-15T07:32:09.614Z,43.60
2023-04-15T07:33:09.608Z,41.18
2023-04-15T07:34:09.719Z,39.42
2023-04-15T07:35:09.723Z,38.34
2023-04-15T07:36:09.717Z,43.31
2023-04-15T07:37:09.810Z,42.00
2023-04-15T07:38:09.876Z,38.02
2023-04-15T07:39:09.926Z,40.61
2023-04-15T07:40:10.085Z,37.78
2023-04-15T07:41:10.068Z,40.69
2023-04-15T07:42:10.106Z,38.72
2023-04-15T07:43:10.120Z,40.17
2023-04-15T07:44:10.229Z,41.60
2023-04-15T07:45:10.289Z,38.56
2023-04-15T07:46:10.350Z,37.51
2023-04-15T07:47:10.417Z,36.69
2023-04-15T07:48:10.476Z,40.86
2023-04-15T07:49:10.554Z,41.55
2023-04-15T07:50:10.662Z,37.02
2023-04-15T07:51:10.727Z,37.54
2023-04-15T07:52:10.737Z,33.70
2023-04-15T07:53:10.827Z,29.43
2023-04-15T07:54:10.894Z,25.93
2023-04-15T07:55:10.969Z,31.17
2023-04-15T07:56:11.013Z,35.46
2023-04-15T07:57:11.081Z,31.68
2023-04-15T07:58:11.145Z,36.51
2023-04-15T07:59:11.188Z,36.49
2023-04-15T08:00:11.256Z,33.82
2023-04-15T08:01:11.326Z,38.30
2023-04-15T08:02:11.484Z,37.57
2023-04-15T08:03:11.526Z,34.01
2023-04-15T08:04:11.668Z,25.00
2023-04-15T08:05:11.576Z,35.44
2023-04-15T08:06:11.644Z,30.62
2023-04-15T08:07:11.864Z,29.50
2023-04-15T08:08:11.763Z,27.29
2023-04-15T08:09:11.893Z,25.38
2023-04-15T08:10:11.825Z,30.50
2023-04-15T08:11:11.915Z,31.92
2023-04-15T08:12:11.948Z,27.71
2023-04-15T08:13:11.990Z,31.15
2023-04-15T08:14:12.055Z,33.35
2023-04-15T08:15:12.127Z,35.91
2023-04-15T08:16:12.196Z,37.96
2023-04-15T08:17:12.225Z,35.90
2023-04-15T08:18:12.293Z,42.62
2023-04-15T08:19:12.348Z,41.91
2023-04-15T08:20:12.396Z,47.45
2023-04-15T08:21:12.468Z,46.85
2023-04-15T08:22:17.815Z,46.82
2023-04-15T08:23:13.497Z,47.02
2023-04-15T08:24:12.441Z,47.44
2023-04-15T08:25:12.484Z,48.93
2023-04-15T08:26:12.454Z,49.05
2023-04-15T08:27:12.448Z,54.74
2023-04-15T08:28:12.427Z,52.44
2023-04-15T08:29:12.406Z,49.49
2023-04-15T08:30:12.577Z,49.74
2023-04-15T08:31:12.473Z,52.12
2023-04-15T08:32:12.446Z,51.20
2023-04-15T08:33:12.407Z,53.52
2023-04-15T08:34:12.458Z,51.71
2023-04-15T08:35:12.451Z,49.17
2023-04-15T08:36:12.517Z,43.09
2023-04-15T08:37:12.798Z,41.63
2023-04-15T08:38:13.562Z,45.44
2023-04-15T08:39:12.642Z,49.82
2023-04-15T08:40:12.700Z,50.72
2023-04-15T08:41:12.762Z,49.36
2023-04-15T08:42:12.756Z,49.38
2023-04-15T08:43:12.873Z,51.49
2023-04-15T08:44:12.909Z,44.32
2023-04-15T08:45:12.942Z,47.30
2023-04-15T08:46:12.982Z,45.71
2023-04-15T08:47:12.945Z,46.25
2023-04-15T08:48:13.057Z,44.59
2023-04-15T08:49:13.094Z,47.52
2023-04-15T08:50:13.132Z,47.87
2023-04-15T08:51:13.127Z,50.34
2023-04-15T08:52:13.192Z,47.77
2023-04-15T08:53:13.243Z,48.32
2023-04-15T08:54:13.256Z,46.66
2023-04-15T08:55:13.306Z,48.49
2023-04-15T08:56:13.309Z,42.82
2023-04-15T08:57:13.371Z,50.48
2023-04-15T08:58:13.430Z,49.59
2023-04-15T08:59:13.570Z,47.69
2023-04-15T09:00:13.506Z,51.56
2023-04-15T09:01:13.581Z,50.65
2023-04-15T09:02:13.602Z,51.49
2023-04-15T09:03:13.672Z,46.06
2023-04-15T09:04:13.738Z,48.13
2023-04-15T09:05:13.684Z,47.56
2023-04-15T09:06:13.729Z,48.72
2023-04-15T09:07:13.747Z,50.29
2023-04-15T09:08:13.946Z,44.06
2023-04-15T09:09:13.937Z,45.54
2023-04-15T09:10:13.841Z,42.26
2023-04-15T09:11:13.929Z,42.55
2023-04-15T09:12:13.887Z,47.60
2023-04-15T09:13:13.940Z,50.68
2023-04-15T09:14:13.982Z,48.74
2023-04-15T09:15:14.053Z,46.46
2023-04-15T09:16:14.195Z,51.14
2023-04-15T09:17:14.129Z,50.71
2023-04-15T09:18:14.136Z,48.92
2023-04-15T09:19:14.185Z,53.92
2023-04-15T09:20:14.222Z,52.11
2023-04-15T09:21:14.262Z,54.95
2023-04-15T09:22:14.267Z,55.59
2023-04-15T09:23:14.341Z,51.36
2023-04-15T09:24:14.355Z,52.35
2023-04-15T09:25:14.407Z,49.98
2023-04-15T09:26:14.431Z,52.81
2023-04-15T09:27:14.448Z,52.58
2023-04-15T09:28:14.515Z,54.59
2023-04-15T09:29:14.594Z,54.25
2023-04-15T09:30:14.558Z,55.57
2023-04-15T09:31:14.715Z,57.16
2023-04-15T09:32:14.696Z,55.39
2023-04-15T09:33:14.687Z,53.93
2023-04-15T09:34:14.743Z,54.41
2023-04-15T09:35:14.766Z,58.55
2023-04-15T09:36:14.812Z,58.39
2023-04-15T09:37:31.139Z,51.45
2023-04-15T09:38:16.010Z,51.78
2023-04-15T09:39:15.044Z,52.39
2023-04-15T09:40:15.041Z,53.59
2023-04-15T09:41:15.071Z,54.70
2023-04-15T09:42:15.061Z,55.34
2023-04-15T09:43:15.096Z,56.93
2023-04-15T09:44:15.140Z,54.62
2023-04-15T09:45:15.214Z,55.10
2023-04-15T09:46:15.232Z,55.89
2023-04-15T09:47:15.227Z,54.90
2023-04-15T09:48:15.256Z,51.40
2023-04-15T09:49:15.302Z,52.56
2023-04-15T09:50:15.353Z,56.27
2023-04-15T09:51:15.375Z,46.99
2023-04-15T09:52:15.398Z,52.16
2023-04-15T09:53:15.406Z,50.84
2023-04-15T09:54:15.447Z,52.78
2023-04-15T09:55:15.451Z,51.80
2023-04-15T09:56:15.618Z,53.64
2023-04-15T09:57:15.527Z,49.51
2023-04-15T09:58:15.501Z,51.72
2023-04-15T09:59:15.560Z,47.47
2023-04-15T10:00:15.665Z,51.88
2023-04-15T10:01:15.659Z,51.78
2023-04-15T10:02:15.708Z,51.26
2023-04-15T10:03:15.824Z,53.13
2023-04-15T10:04:15.838Z,49.18
2023-04-15T10:05:15.742Z,51.75
2023-04-15T10:06:15.739Z,51.67
2023-04-15T10:07:15.810Z,53.94
2023-04-15T10:08:15.800Z,54.84
2023-04-15T10:09:15.794Z,55.60
2023-04-15T10:10:30.544Z,54.47
2023-04-15T10:11:15.831Z,55.10
2023-04-15T10:12:15.833Z,55.80
2023-04-15T10:13:15.782Z,56.75
2023-04-15T10:14:15.818Z,58.75
2023-04-15T10:15:15.821Z,56.66
2023-04-15T10:16:15.861Z,57.00
2023-04-15T10:17:15.812Z,60.96
2023-04-15T10:18:15.825Z,54.46
2023-04-15T10:19:15.753Z,58.41
2023-04-15T10:20:15.783Z,53.74
2023-04-15T10:21:15.807Z,55.51
2023-04-15T10:22:15.761Z,55.66
2023-04-15T10:23:15.804Z,57.18
2023-04-15T10:24:15.789Z,56.23
2023-04-15T10:25:15.817Z,53.73
2023-04-15T10:26:15.797Z,58.34
2023-04-15T10:27:15.768Z,57.92
2023-04-15T10:28:15.743Z,55.78
2023-04-15T10:29:15.748Z,53.47
2023-04-15T10:30:15.748Z,56.87
2023-04-15T10:31:15.924Z,52.01
2023-04-15T10:32:15.708Z,53.82
2023-04-15T10:33:15.707Z,54.84
2023-04-15T10:34:15.725Z,55.11
2023-04-15T10:35:15.743Z,52.04
2023-04-15T10:36:15.699Z,53.44
2023-04-15T10:37:15.705Z,48.70
2023-04-15T10:38:15.707Z,55.73
2023-04-15T10:39:15.933Z,55.49
2023-04-15T10:40:15.657Z,50.87
2023-04-15T10:41:17.157Z,53.03
2023-04-15T10:42:15.695Z,53.11
2023-04-15T10:43:15.680Z,53.12
2023-04-15T10:44:15.657Z,52.32
2023-04-15T10:45:15.854Z,54.08
2023-04-15T10:46:15.697Z,51.63
2023-04-15T10:47:15.615Z,53.30
2023-04-15T10:48:15.613Z,52.20
2023-04-15T10:49:15.661Z,55.96
2023-04-15T10:50:15.638Z,53.04
2023-04-15T10:51:15.650Z,54.54
2023-04-15T10:52:15.593Z,52.23
2023-04-15T10:53:15.587Z,52.62
2023-04-15T10:54:15.588Z,58.61
2023-04-15T10:55:15.565Z,51.90
2023-04-15T10:56:15.558Z,57.58
2023-04-15T10:57:15.591Z,57.11
2023-04-15T10:58:15.588Z,55.19
2023-04-15T10:59:15.537Z,53.12
2023-04-15T11:00:15.562Z,54.32
2023-04-15T11:01:15.552Z,52.60
2023-04-15T11:02:15.613Z,51.55
2023-04-15T11:03:15.622Z,57.78
2023-04-15T11:04:15.618Z,55.69
2023-04-15T11:05:15.566Z,56.33
2023-04-15T11:06:15.551Z,52.20
2023-04-15T11:07:15.502Z,56.93
2023-04-15T11:08:15.495Z,53.20
2023-04-15T11:09:15.519Z,57.41
2023-04-15T11:10:15.526Z,55.66
2023-04-15T11:11:15.474Z,58.66
2023-04-15T11:12:15.483Z,55.54
2023-04-15T11:13:15.440Z,53.88
2023-04-15T11:14:15.442Z,55.94
2023-04-15T11:15:15.444Z,54.50
2023-04-15T11:16:16.160Z,56.40
2023-04-15T11:17:15.425Z,54.85
2023-04-15T11:18:15.432Z,50.28
2023-04-15T11:19:15.437Z,53.34
2023-04-15T11:20:15.425Z,54.20
2023-04-15T11:21:15.449Z,51.70
2023-04-15T11:22:15.494Z,53.94
2023-04-15T11:23:15.872Z,53.59
2023-04-15T11:24:15.429Z,49.35
2023-04-15T11:25:15.369Z,52.91
2023-04-15T11:26:15.480Z,51.35
2023-04-15T11:27:15.375Z,53.84
2023-04-15T11:28:15.414Z,53.24
2023-04-15T11:29:15.397Z,53.76
2023-04-15T11:30:15.379Z,53.73
2023-04-15T11:31:15.406Z,51.94
2023-04-15T11:32:15.422Z,51.79
2023-04-15T11:33:15.342Z,55.68
2023-04-15T11:34:15.378Z,53.88
2023-04-15T11:35:15.347Z,53.51
2023-04-15T11:36:15.346Z,51.38
2023-04-15T11:37:15.372Z,50.12
2023-04-15T11:38:15.332Z,50.93
2023-04-15T11:39:15.296Z,49.53
2023-04-15T11:40:15.329Z,49.42
2023-04-15T11:41:15.275Z,56.15
2023-04-15T11:42:15.292Z,52.05
2023-04-15T11:43:15.301Z,48.19
2023-04-15T11:44:15.615Z,51.51
2023-04-15T11:45:15.254Z,50.07
2023-04-15T11:46:15.404Z,51.21
2023-04-15T11:47:15.252Z,50.66
2023-04-15T11:48:15.245Z,52.16
2023-04-15T11:49:15.237Z,51.24
2023-04-15T11:50:15.243Z,49.88
2023-04-15T11:51:15.256Z,51.58
2023-04-15T11:52:15.245Z,49.42
2023-04-15T11:53:15.198Z,50.86
2023-04-15T11:54:15.190Z,52.31
2023-04-15T11:55:15.197Z,53.65
2023-04-15T11:56:15.162Z,50.11
2023-04-15T11:57:15.165Z,50.10
2023-04-15T11:58:16.367Z,49.62
2023-04-15T11:59:15.192Z,49.95
2023-04-15T12:00:15.176Z,49.61
2023-04-15T12:01:15.141Z,49.56
2023-04-15T12:02:15.327Z,52.22
2023-04-15T12:03:15.401Z,53.28
2023-04-15T12:04:15.256Z,49.24
2023-04-15T12:05:15.190Z,51.16
2023-04-15T12:06:15.114Z,54.22
2023-04-15T12:07:15.160Z,54.45
2023-04-15T12:08:15.088Z,52.00
2023-04-15T12:09:15.088Z,50.76
2023-04-15T12:10:15.104Z,49.39
2023-04-15T12:11:15.074Z,49.65
2023-04-15T12:12:15.076Z,52.53
2023-04-15T12:13:15.077Z,49.25
2023-04-15T12:14:15.106Z,48.86
2023-04-15T12:15:15.098Z,52.44
2023-04-15T12:16:15.111Z,48.67
2023-04-15T12:17:15.042Z,51.34
2023-04-15T12:18:15.091Z,50.32
2023-04-15T12:19:15.023Z,50.23
2023-04-15T12:20:15.033Z,47.43
2023-04-15T12:21:15.024Z,46.94
2023-04-15T12:22:15.053Z,49.25
2023-04-15T12:23:15.062Z,45.68
2023-04-15T12:24:15.051Z,55.04
2023-04-15T12:25:15.056Z,48.65
2023-04-15T12:26:15.177Z,48.43
2023-04-15T12:27:15.131Z,51.21
2023-04-15T12:28:15.217Z,48.16
2023-04-15T12:29:15.243Z,52.44
2023-04-15T12:30:15.302Z,51.81
2023-04-15T12:31:15.320Z,46.79
2023-04-15T12:32:15.360Z,47.92
2023-04-15T12:33:15.373Z,53.11
2023-04-15T12:34:15.383Z,50.90
2023-04-15T12:35:15.441Z,49.22
2023-04-15T12:36:15.452Z,48.13
2023-04-15T12:37:15.494Z,48.27
2023-04-15T12:38:15.596Z,43.78
2023-04-15T12:39:15.677Z,45.19
2023-04-15T12:40:15.842Z,50.91
2023-04-15T12:41:15.726Z,43.94
2023-04-15T12:42:15.790Z,50.98
2023-04-15T12:43:15.736Z,45.65
2023-04-15T12:44:15.766Z,44.07
2023-04-15T12:45:15.764Z,47.93
2023-04-15T12:46:15.854Z,46.42
2023-04-15T12:47:15.849Z,50.88
2023-04-15T12:48:15.789Z,53.07
2023-04-15T12:49:15.771Z,48.27
2023-04-15T12:50:15.891Z,51.35
2023-04-15T12:51:15.959Z,54.42
2023-04-15T12:52:15.986Z,52.83
2023-04-15T12:53:16.132Z,50.57